EGXV

RAF Leconfield Airport

Leconfield, United Kingdom
METAR EGXV 230950Z AUTO 15002KT 7000 BR SCT019/// SCT024/// BKN030/// 01/01 Q1024 REFZRA
Observed Flight Rules
Feb-23 @ 09:50 UTC (39 minutes ago) Marginal Visual Flight Rules
Wind Visibility Clouds Conditions
150° at 2 knots 7,001 meters
  • Scattered at 1,900' AGL
  • Scattered at 2,400' AGL
  • Broken at 3,000' AGL
  • Mist
Temperatures Readings
Current 1°C / 34°F
Dewpoint 1°C / 34°F
Humidity 100%
Altimeter 30.24" Hg
Pressure 1024 hPa
Elevation 6
METAR EGXV 230950Z AUTO 15002KT 7000 BR SCT019/// SCT024/// BKN030/// 01/01 Q1024 REFZRA
Observed Flight Rules
Feb-23 @ 09:50 UTC
(39 minutes ago)
MVFR
Wind Visibility
150° at 2 knots 7,001 meters
Clouds
  • Scattered at 1,900' AGL
  • Scattered at 2,400' AGL
  • Broken at 3,000' AGL
Conditions
  • Mist
Temperature Dewpoint
1°C / 34°F 1°C / 34°F
Humidity Altimeter Pressure
100% 30.24" Hg 1024 hPa